Academia, Pennsylvania
Current Conditions -  °F | °C
As of 5:53 AM on Thursday 18 Dec 2014 (Local Time) from KUNV Reporting Station
Overcast Overcast  
Wind Chill: -8°   Ceiling: 2600
Heat Index: -2°   Visibility: 10mi
Dew Point: -7°   Wind: 12mph
Humidity: 69%   Direction: 280°W
Pressure: 30.07"   Gusts: 17mph
Location:  40.4991°N, 77.4687°W
Report Text: KUNV 181053Z 28010G15KT 10SM OVC026 M02/M07 A3007
Loading
Personal Weather Stations






























Interactive Weather Map New forecast layout! Learn more

10-Day Weather Forecast

Advertisements
Track Severe Weather on mobile